메인 페이지
METAR-TAF:

METAR-TAF

공항 :

후쿠오카 공항

후쿠오카, 일본

위도: 33-35N, 경도: 130-27E, 고도: 9m

현재 날씨관측

예보는 17분 전, 15:00시(UTC)에 발표되었습니다.
남남동6kt
온도 28°C
습도 79%
기압 1006 hPa
시정 10km 이상

METAR: RJFF 151500Z AUTO 15006KT 9999 NCD 28/24 Q1006 NOSIG

시각: 00:17 (15:17 UTC)

예보

예보는 4 시간 12분 전, 11:05시(UTC)에 발표되었습니다.
예보 대상 시간: 15일 12시부터 16일 18시까지 (UTC)
남동5kt
시정 10km 이상
고도 2500ft 상공 구름 조금
고도 4500ft 상공 구름 보통
전환 중
16일 00시부터 16일 03시까지 (UTC)
북북동6kt
일시적
16일 03시부터 16일 09시까지 (UTC)
시정: 4000m
고도 1000ft 상공 구름 조금
고도 2000ft 상공 구름 보통
고도 3000ft 상공 구름 많음
고도 3000ft 상공 구름 조금, 적란운.
뇌우, 약한비, 박무

TAF: RJFF 151105Z 1512/1618 13005KT 9999 FEW025 SCT045 BECMG 1600/1603 03006KT TEMPO 1603/1609 4000 -TSRA BR FEW010 SCT020 BKN030 FEW030CB

4,000개 이상의 공항 관측 자료 및 예보 (METAR 및 TAF 보고).

지도상에서 검색 가능한 기상관측소가 노란 점과 빨간 점으로 표시되어 있습니다.

기상관측소 명을 보려면 표시 위로 마우스를 이동하세요.

날씨 관측과 예보를 보려면 클릭하세요.

지도 변경 : 확대하려면 엑스 표시가 있는 녹색 버튼, 축소하려면 빼기 표시가 있는 녹색 버튼, 다음 페이지의 지도를 보려면 녹색 화살표를 클릭하세요.


METAR-TAF: